Latest Weather Observations for Nullarbor

IDS60801

Issued at 6:31 pm CST Sunday 5 July 2015 (issued every 30 minutes, with the page automatically refreshed every 10 minutes)

About weather observations | Map of weather stations | Latest weather observations for SA | Other Formats
Station Details ID: 018106 Name: NULLARBOR Lat: -31.45 Lon: 130.90 Height: 64.0 m
Data from the previous 72 hours. | See also: Recent months at Nullarbor
Date/Time
CST
Temp
°C
App
Temp
°C
Dew
Point
Rel
Hum
%
Delta-T
°C
Wind Press
QNH
hPa
Press
MSL
hPa
Rain
since 9 am
mm
Dir
 
Spd
km/h
Gust
km/h
Spd
kts
Gust
kts
05/06:30pm 15.0 11.1 9.6 70 2.8 SW 20 26 11 14 1018.2 1018.3 0.0
05/06:00pm 15.8 11.7 8.5 62 3.7 SW 20 28 11 15 1018.0 1018.1 0.0
05/05:30pm 17.2 11.4 7.8 54 4.8 SW 28 37 15 20 1017.6 1017.7 0.0
05/05:00pm 18.5 11.9 7.9 50 5.4 SW 32 43 17 23 1017.3 1017.4 0.0
05/04:30pm 19.0 12.0 6.8 45 6.1 WSW 33 44 18 24 1016.9 1017.0 0.0
05/04:00pm 20.5 14.1 6.8 41 7.0 SW 30 37 16 20 1016.6 1016.7 0.0
05/03:30pm 20.6 15.7 8.6 46 6.3 SW 24 33 13 18 1016.5 1016.6 0.0
05/03:00pm 23.4 17.3 2.8 26 9.9 WNW 24 33 13 18 1016.4 1016.5 0.0
05/02:30pm 23.9 17.1 3.2 26 10.0 WNW 28 35 15 19 1016.5 1016.6 0.0
05/02:00pm 23.9 17.5 3.2 26 10.1 WNW 26 39 14 21 1016.8 1016.9 0.0
05/01:30pm 23.2 17.4 4.2 29 9.3 WNW 24 43 13 23 1017.2 1017.3 0.0
05/01:00pm 22.6 17.1 4.2 30 9.0 NW 22 32 12 17 1017.7 1017.8 0.0
05/12:30pm 21.5 16.7 4.6 33 8.3 NW 19 28 10 15 1018.3 1018.4 0.0
05/12:00pm 19.7 15.2 4.2 36 7.4 NNW 17 24 9 13 1018.7 1018.8 0.0
05/11:30am 17.1 13.0 4.1 42 6.1 NNW 15 17 8 9 1019.2 1019.3 0.0
05/11:00am 15.7 11.1 3.8 45 5.5 NNW 17 20 9 11 1019.3 1019.4 0.0
05/10:30am 14.5 9.9 3.6 48 5.0 NNW 17 20 9 11 1019.4 1019.5 0.0
05/10:00am 13.3 8.2 3.1 50 4.6 NNW 19 24 10 13 1019.4 1019.5 0.0
05/09:30am 11.9 6.6 3.2 55 3.8 N 20 26 11 14 1019.2 1019.3 0.0
05/09:00am 11.2 5.1 3.0 57 3.6 N 24 28 13 15 1019.3 1019.4 0.2
05/08:30am 8.8 3.8 3.4 69 2.3 N 19 24 10 13 1019.3 1019.4 0.2
05/08:00am 6.1 1.4 3.1 81 1.3 N 17 19 9 10 1019.3 1019.4 0.2
05/07:30am 5.4 1.0 2.8 83 1.1 N 15 19 8 10 1019.2 1019.3 0.2
05/07:00am 6.2 1.5 3.0 80 1.3 N 17 19 9 10 1019.0 1019.1 0.2
05/06:30am 6.7 1.9 4.4 85 1.0 N 19 22 10 12 1018.5 1018.6 0.2
05/06:00am 6.0 1.4 5.6 97 0.2 N 19 20 10 11 1018.6 1018.7 0.2
05/05:30am 5.3 1.0 5.2 99 0.0 N 17 20 9 11 1018.7 1018.8 0.2
05/05:00am 4.9 0.5 4.8 99 0.0 N 17 19 9 10 1018.9 1019.0 0.2
05/04:30am 4.9 0.5 4.8 99 0.0 N 17 20 9 11 1018.9 1019.0 0.2
05/04:00am 4.7 1.0 4.6 99 0.0 NNW 13 15 7 8 1019.2 1019.3 0.0
05/03:56am 4.6 0.9 4.5 99 0.0 NNW 13 15 7 8 1019.2 1019.3 0.0
05/03:30am 5.0 2.1 4.9 99 0.0 NNW 9 11 5 6 1019.3 1019.4 0.0
05/03:17am 4.9 1.6 4.8 99 0.0 NNW 11 11 6 6 1019.4 1019.5 0.0
05/03:15am 4.7 1.4 4.6 99 0.0 NNW 11 11 6 6 1019.5 1019.6 0.0
05/03:00am 4.9 2.0 4.8 99 0.0 NNW 9 11 5 6 1019.7 1019.8 0.0
05/02:32am 5.8 2.7 5.7 99 0.0 NNW 11 13 6 7 1019.7 1019.8 0.0
05/02:30am 6.0 3.0 5.9 99 0.0 NNW 11 13 6 7 1019.8 1019.9 0.0
05/02:00am 6.5 4.0 6.4 99 0.0 N 9 11 5 6 1020.1 1020.2 0.0
05/01:30am 6.9 4.5 6.8 99 0.0 N 9 11 5 6 1020.3 1020.4 0.0
05/01:00am 7.1 4.3 7.0 99 0.0 NNW 11 13 6 7 1020.5 1020.6 0.0
05/12:36am 7.3 4.9 7.2 99 0.0 NNW 9 11 5 6 1020.5 1020.6 0.0
05/12:30am 6.9 4.5 6.8 99 0.0 N 9 11 5 6 1020.6 1020.7 0.0
05/12:04am 7.2 4.8 7.1 99 0.0 NNW 9 11 5 6 1020.7 1020.8 0.0
05/12:00am 7.2 4.8 7.1 99 0.0 NNW 9 13 5 7 1020.7 1020.8 0.0
 
Date/Time
CST
Temp
°C
App
Temp
°C
Dew
Point
Rel
Hum
%
Delta-T
°C
Wind Press
QNH
hPa
Press
MSL
hPa
Rain
since 9 am
mm
Dir
 
Spd
km/h
Gust
km/h
Spd
kts
Gust
kts
04/11:30pm 7.7 5.1 7.6 99 0.0 NW 11 13 6 7 1020.9 1021.0 0.0
04/11:10pm 7.4 4.3 7.3 99 0.0 WNW 13 13 7 7 1020.9 1021.0 0.0
04/11:00pm 7.7 5.1 7.6 99 0.0 WNW 11 13 6 7 1020.9 1021.0 0.0
04/10:30pm 7.9 4.9 7.8 99 0.0 WNW 13 15 7 8 1020.9 1021.0 0.0
04/10:00pm 8.6 6.1 8.0 96 0.3 WNW 11 11 6 6 1020.9 1021.0 0.0
04/09:30pm 9.7 7.3 8.6 93 0.5 WNW 11 11 6 6 1020.9 1021.0 0.0
04/09:00pm 10.5 7.8 8.8 89 0.8 W 13 13 7 7 1020.9 1021.0 0.0
04/08:30pm 12.0 10.2 9.6 85 1.2 W 9 11 5 6 1020.8 1020.9 0.0
04/08:00pm 11.3 7.7 6.8 74 2.1 WSW 15 17 8 9 1020.6 1020.7 0.0
04/07:30pm 11.7 9.2 6.4 70 2.5 W 9 11 5 6 1020.5 1020.6 0.0
04/07:00pm 13.0 11.2 7.0 67 2.9 SW 6 7 3 4 1020.2 1020.3 0.0
04/06:30pm 14.3 11.9 6.9 61 3.6 SW 9 9 5 5 1019.9 1020.0 0.0
04/06:00pm 15.8 12.6 6.8 55 4.4 SW 13 15 7 8 1019.9 1020.0 0.0
04/05:30pm 17.6 13.1 6.2 47 5.6 SW 19 24 10 13 1019.6 1019.7 0.0
04/05:00pm 19.1 14.0 6.2 43 6.4 SW 22 28 12 15 1019.6 1019.7 0.0
04/04:30pm 22.6 17.2 1.0 24 9.9 NW 19 24 10 13 1019.5 1019.6 0.0
04/04:00pm 22.5 17.4 0.9 24 9.9 NNW 17 28 9 15 1019.6 1019.7 0.0
04/03:30pm 22.9 17.5 1.3 24 10.0 N 19 30 10 16 1019.6 1019.7 0.0
04/03:00pm 22.3 16.7 1.3 25 9.7 N 20 26 11 14 1019.7 1019.8 0.0
04/02:30pm 22.0 16.4 1.1 25 9.6 N 20 30 11 16 1019.8 1019.9 0.0
04/02:00pm 22.2 16.6 1.3 25 9.7 N 20 28 11 15 1020.2 1020.3 0.0
04/01:30pm 22.1 16.2 1.7 26 9.5 N 22 32 12 17 1020.6 1020.7 0.0
04/01:00pm 21.5 15.6 1.7 27 9.2 N 22 28 12 15 1021.3 1021.4 0.0
04/12:30pm 20.7 14.8 1.6 28 8.7 NNW 22 32 12 17 1021.7 1021.8 0.0
04/12:00pm 20.0 14.4 1.4 29 8.4 N 20 26 11 14 1022.1 1022.2 0.0
04/11:30am 19.2 13.2 1.2 30 8.1 N 22 30 12 16 1022.5 1022.6 0.0
04/11:00am 18.3 12.3 1.3 32 7.6 N 22 28 12 15 1023.1 1023.1 0.0
04/10:30am 16.7 10.0 1.6 36 6.7 N 26 32 14 17 1022.8 1022.9 0.0
04/10:00am 14.7 8.5 1.9 42 5.6 N 24 30 13 16 1022.8 1022.9 0.0
04/09:30am 12.6 6.3 1.6 47 4.7 N 24 32 13 17 1022.7 1022.8 0.0
04/09:00am 10.1 5.2 1.7 56 3.5 N 17 20 9 11 1022.8 1022.9 0.0
04/08:30am 7.7 3.1 1.3 64 2.6 N 15 19 8 10 1022.7 1022.8 0.0
04/08:00am 6.2 1.5 0.7 68 2.2 NNE 15 17 8 9 1022.5 1022.6 0.0
04/07:30am 6.8 1.8 1.1 67 2.3 N 17 20 9 11 1022.5 1022.6 0.0
04/07:00am 6.9 1.8 1.0 66 2.4 NNE 17 19 9 10 1022.4 1022.5 0.0
04/06:30am 8.4 4.1 1.3 61 2.9 NNE 13 17 7 9 1022.4 1022.5 0.0
04/06:00am 9.2 4.6 1.4 58 3.2 N 15 19 8 10 1022.1 1022.2 0.0
04/05:30am 9.9 5.0 1.8 57 3.4 N 17 20 9 11 1022.1 1022.2 0.0
04/05:00am 10.2 5.3 1.8 56 3.5 N 17 22 9 12 1022.1 1022.2 0.0
04/04:30am 10.3 5.0 1.9 56 3.5 N 19 24 10 13 1022.1 1022.2 0.0
04/04:00am 10.5 5.6 1.9 55 3.6 NNE 17 20 9 11 1022.2 1022.3 0.0
04/03:30am 10.9 6.0 1.7 53 3.9 NNE 17 22 9 12 1022.1 1022.2 0.0
04/03:00am 11.3 6.0 1.8 52 4.0 NNE 19 22 10 12 1022.3 1022.4 0.0
04/02:30am 11.0 6.5 2.1 54 3.8 NNE 15 20 8 11 1022.4 1022.5 0.0
04/02:00am 10.9 5.7 2.2 55 3.7 NNE 19 24 10 13 1022.3 1022.4 0.0
04/01:30am 10.3 5.4 2.2 57 3.4 NNE 17 20 9 11 1022.4 1022.5 0.0
04/01:00am 9.8 5.3 2.2 59 3.2 NNE 15 19 8 10 1022.6 1022.7 0.0
04/12:30am 9.2 4.3 2.1 61 3.0 NNE 17 19 9 10 1022.6 1022.7 0.0
04/12:00am 9.4 4.9 2.0 60 3.1 NNE 15 19 8 10 1022.6 1022.7 0.0
 
Date/Time
CST
Temp
°C
App
Temp
°C
Dew
Point
Rel
Hum
%
Delta-T
°C
Wind Press
QNH
hPa
Press
MSL
hPa
Rain
since 9 am
mm
Dir
 
Spd
km/h
Gust
km/h
Spd
kts
Gust
kts
03/11:30pm 9.9 5.0 2.3 59 3.2 NNE 17 20 9 11 1022.6 1022.7 0.0
03/11:00pm 10.2 5.3 2.3 58 3.4 NNE 17 19 9 10 1022.6 1022.7 0.0
03/10:30pm 10.6 6.1 2.4 57 3.5 NNE 15 19 8 10 1022.7 1022.8 0.0
03/10:00pm 11.0 6.2 2.6 56 3.6 NNE 17 20 9 11 1022.8 1022.9 0.0
03/09:30pm 11.4 6.6 2.4 54 3.9 NE 17 20 9 11 1023.1 1023.1 0.0
03/09:00pm 11.4 6.2 2.2 53 3.9 NNE 19 20 10 11 1023.1 1023.1 0.0
03/08:30pm 11.4 6.2 2.2 53 3.9 NE 19 20 10 11 1022.8 1022.9 0.0
03/08:00pm 11.4 6.5 1.9 52 4.1 NE 17 19 9 10 1022.8 1022.9 0.0
03/07:30pm 12.1 7.2 1.7 49 4.4 NE 17 20 9 11 1022.7 1022.8 0.0
03/07:00pm 13.1 7.6 2.1 47 4.8 NE 20 20 11 11 1022.5 1022.6 0.0
03/06:30pm 13.7 8.4 1.7 44 5.2 NE 19 19 10 10 1022.4 1022.5 0.0
03/06:00pm 16.2 12.0 1.5 37 6.5 NE 13 13 7 7 1022.4 1022.5 0.0
03/05:30pm 19.2 15.1 2.1 32 7.8 NNE 13 15 7 8 1022.4 1022.5 0.0
03/05:00pm 20.5 16.7 1.9 29 8.6 N 11 17 6 9 1022.4 1022.5 0.0
03/04:30pm 20.8 16.3 2.1 29 8.7 N 15 19 8 10 1022.4 1022.5 0.0
03/04:00pm 21.1 16.6 2.4 29 8.8 N 15 19 8 10 1022.4 1022.5 0.0
03/03:30pm 21.2 16.8 2.5 29 8.8 N 15 24 8 13 1022.5 1022.6 0.0
03/03:00pm 21.1 15.9 2.4 29 8.7 N 19 28 10 15 1022.7 1022.8 0.0
03/02:30pm 20.8 15.4 2.6 30 8.5 N 20 30 11 16 1023.1 1023.1 0.0
03/02:00pm 20.1 14.3 2.5 31 8.2 N 22 32 12 17 1023.6 1023.6 0.0
03/01:30pm 20.5 14.0 2.8 31 8.3 N 26 37 14 20 1024.1 1024.1 0.0
03/01:00pm 19.8 13.3 2.6 32 8.0 N 26 37 14 20 1024.6 1024.6 0.0
03/12:30pm 19.3 12.8 2.6 33 7.7 N 26 33 14 18 1025.3 1025.3 0.0
03/12:00pm 18.4 11.9 2.7 35 7.2 N 26 37 14 20 1026.0 1026.0 0.0
03/11:30am 17.6 10.3 2.4 36 6.9 N 30 39 16 21 1026.6 1026.6 0.0
03/11:00am 16.3 8.7 2.7 40 6.2 N 32 39 17 21 1027.0 1027.0 0.0
03/10:30am 15.1 7.9 3.0 44 5.4 N 30 37 16 20 1027.3 1027.3 0.0
03/10:00am 14.2 7.4 3.1 47 5.0 N 28 33 15 18 1027.2 1027.2 0.0
03/09:30am 11.7 6.3 2.5 53 4.0 NNE 20 24 11 13 1027.2 1027.2 0.0
03/09:00am 9.0 3.7 1.7 60 3.0 NNE 19 24 10 13 1027.0 1027.0 0.0
03/08:30am 6.2 0.7 0.5 67 2.2 NNE 19 22 10 12 1026.7 1026.7 0.0
03/08:00am 4.4 -1.2 -0.2 72 1.7 NNE 19 20 10 11 1026.5 1026.5 0.0
03/07:30am 4.3 -1.0 -0.5 71 1.8 NNE 17 20 9 11 1026.3 1026.3 0.0
03/07:00am 5.1 -0.1 -0.1 69 2.0 NNE 17 20 9 11 1026.2 1026.2 0.0
03/06:30am 5.4 0.2 0.2 69 2.0 NNE 17 20 9 11 1026.0 1026.0 0.0
03/06:00am 6.1 0.5 0.2 66 2.3 NNE 19 22 10 12 1025.8 1025.8 0.0
03/05:30am 6.9 1.4 0.6 64 2.5 NNE 19 22 10 12 1025.8 1025.8 0.0
03/05:00am 7.7 2.1 1.1 63 2.7 NE 20 24 11 13 1025.8 1025.8 0.0
03/04:30am 7.5 2.1 1.4 65 2.5 NE 19 24 10 13 1026.0 1026.0 0.0
03/04:00am 7.1 2.1 1.4 67 2.3 NE 17 20 9 11 1026.3 1026.3 0.0
03/03:30am 7.3 2.0 1.6 67 2.3 NE 19 20 10 11 1026.6 1026.6 0.0
03/03:00am 7.4 2.2 2.3 70 2.1 NE 19 22 10 12 1026.8 1026.8 0.0
03/02:30am 6.0 0.8 2.5 78 1.4 NE 19 20 10 11 1026.9 1026.9 0.0
03/02:00am 5.5 0.4 2.8 83 1.1 NE 19 20 10 11 1027.1 1027.1 0.0
03/01:30am 5.9 1.0 3.9 87 0.8 ENE 19 20 10 11 1027.3 1027.3 0.0
03/01:00am 5.5 1.0 4.0 90 0.6 E 17 19 9 10 1027.6 1027.6 0.0
03/12:30am 6.2 2.2 4.7 90 0.6 E 15 17 8 9 1027.8 1027.8 0.0
03/12:00am 7.1 3.3 5.6 90 0.7 E 15 17 8 9 1028.3 1028.3 0.0
 
Date/Time
CST
Temp
°C
App
Temp
°C
Dew
Point
Rel
Hum
%
Delta-T
°C
Wind Press
QNH
hPa
Press
MSL
hPa
Rain
since 9 am
mm
Dir
 
Spd
km/h
Gust
km/h
Spd
kts
Gust
kts
02/11:30pm 7.3 3.1 5.8 90 0.7 ESE 17 17 9 9 1028.7 1028.7 0.0
02/11:00pm 7.5 3.4 6.4 93 0.5 ESE 17 19 9 10 1028.6 1028.6 0.0
02/10:30pm 7.5 3.2 6.9 96 0.3 ESE 19 19 10 10 1028.8 1028.8 0.0
02/10:00pm 8.0 4.1 7.1 94 0.4 ESE 17 19 9 10 1028.6 1028.6 0.0
02/09:30pm 8.0 4.0 6.8 92 0.6 ESE 17 17 9 9 1028.7 1028.7 0.0
02/09:00pm 8.5 5.0 7.0 90 0.7 SE 15 17 8 9 1028.7 1028.7 0.0
02/08:30pm 8.9 5.3 6.9 87 0.9 SE 15 17 8 9 1028.7 1028.7 0.0
02/08:00pm 9.2 5.3 7.2 87 0.9 SE 17 19 9 10 1028.6 1028.6 0.0
02/07:30pm 8.9 5.1 6.0 82 1.3 SE 15 17 8 9 1028.6 1028.6 0.0
02/07:00pm 9.8 6.0 5.8 76 1.8 SE 15 17 8 9 1028.3 1028.3 0.0

Other Formats:

Comma delimited format used in spreadsheet applications
http://www.bom.gov.au/fwo/IDS60801/IDS60801.94651.axf

JavaScript Object Notation format (JSON) in row-major order
http://www.bom.gov.au/fwo/IDS60801/IDS60801.94651.json